Time;durP1;ratioP1;P1;durP2;ratioP2;P2;SDS_P1;SDS_P2;PMS_P1;PMS_P2;Temp;Humidity;BMP_temperature;BMP_pressure;BME280_temperature;BME280_humidity;BME280_pressure;Samples;Min_cycle;Max_cycle;Signal;HPM_P1;HPM_P2
2023/08/24 00:02:35;;;;;;;9.27;5.72;;;;;;;24.57;77.87;99042.06;4885330;29;20067;-82
2023/08/24 00:05:20;;;;;;;11.05;6.00;;;;;;;24.47;77.80;99045.69;4891636;29;20035;-82
2023/08/24 00:08:05;;;;;;;12.18;6.60;;;;;;;24.34;78.32;99039.13;4887172;29;20048;-82
2023/08/24 00:10:49;;;;;;;6.95;6.22;;;;;;;24.43;78.14;99050.81;4885001;29;20551;-82
2023/08/24 00:13:33;;;;;;;8.07;6.50;;;;;;;24.36;78.66;99064.56;4882723;29;20514;-82
2023/08/24 00:16:19;;;;;;;10.50;6.55;;;;;;;24.44;78.28;99055.09;4888397;29;20055;-81
2023/08/24 00:19:03;;;;;;;10.32;6.68;;;;;;;24.52;78.44;99050.97;4891634;29;20048;-83
2023/08/24 00:21:47;;;;;;;9.70;7.03;;;;;;;24.72;77.92;99055.28;4887800;29;20099;-81
2023/08/24 00:24:31;;;;;;;12.43;6.90;;;;;;;24.85;77.38;99035.03;4892889;29;20087;-81
2023/08/24 00:27:15;;;;;;;9.77;6.53;;;;;;;24.95;77.02;99042.13;4891109;29;20105;-83
2023/08/24 00:29:59;;;;;;;15.25;6.38;;;;;;;24.84;77.29;99028.06;4889736;29;20131;-82
2023/08/24 00:32:44;;;;;;;11.82;6.80;;;;;;;24.77;77.08;99030.31;4887220;29;20063;-82
2023/08/24 00:35:28;;;;;;;9.27;6.28;;;;;;;24.76;77.50;99028.69;4886455;29;20463;-80
2023/08/24 00:38:12;;;;;;;10.13;6.90;;;;;;;24.12;79.41;99031.59;4890020;29;20455;-80
2023/08/24 00:40:56;;;;;;;9.65;6.38;;;;;;;24.06;79.35;99023.59;4886702;29;20048;-81
2023/08/24 00:43:41;;;;;;;9.50;6.78;;;;;;;23.93;80.20;99029.59;4886537;29;20182;-81
2023/08/24 00:46:27;;;;;;;10.82;6.30;;;;;;;24.07;79.89;99025.19;4888582;29;20040;-81
2023/08/24 00:49:12;;;;;;;10.55;6.40;;;;;;;24.00;80.38;99024.72;4887615;29;20097;-81
2023/08/24 00:51:56;;;;;;;10.40;6.93;;;;;;;24.06;80.11;99018.25;4887387;29;20039;-81
2023/08/24 00:54:41;;;;;;;9.73;6.65;;;;;;;24.13;80.50;99022.44;4889220;29;20085;-81
2023/08/24 00:57:27;;;;;;;10.15;6.72;;;;;;;24.25;80.51;99010.25;4892567;29;20124;-81
2023/08/24 01:00:12;;;;;;;8.27;6.55;;;;;;;24.29;79.90;98999.75;4890476;29;20132;-81
2023/08/24 01:02:56;;;;;;;11.35;6.75;;;;;;;24.44;79.80;99004.13;4888032;29;20139;-80
2023/08/24 01:05:40;;;;;;;10.02;6.30;;;;;;;24.37;80.28;99009.84;4887326;29;20192;-81
2023/08/24 01:08:24;;;;;;;9.50;6.82;;;;;;;24.37;80.56;99006.34;4889414;29;20047;-81
2023/08/24 01:11:26;;;;;;;12.00;6.80;;;;;;;24.25;80.82;98996.03;4890684;29;20518;-81
2023/08/24 01:14:38;;;;;;;9.98;6.93;;;;;;;24.27;80.72;98991.19;4888160;29;20462;-81
2023/08/24 01:17:30;;;;;;;8.48;6.38;;;;;;;24.22;81.03;98993.94;4884301;29;20111;-81
2023/08/24 01:20:15;;;;;;;11.55;7.00;;;;;;;24.18;81.42;98998.28;4887591;29;20775;-81
2023/08/24 01:23:18;;;;;;;10.15;6.65;;;;;;;24.26;81.51;99008.38;4890422;29;20083;-79
2023/08/24 01:26:19;;;;;;;10.05;6.60;;;;;;;24.37;81.14;99001.81;4885953;29;20108;-80
2023/08/24 01:29:04;;;;;;;11.00;6.75;;;;;;;24.69;80.25;98996.84;4890404;29;20403;-80
2023/08/24 01:31:49;;;;;;;10.63;6.57;;;;;;;24.33;81.00;99002.66;4886880;29;20100;-80
2023/08/24 01:34:33;;;;;;;13.00;6.63;;;;;;;24.34;80.67;99002.34;4891669;29;20454;-80
2023/08/24 01:37:17;;;;;;;7.80;6.00;;;;;;;24.49;80.47;98997.88;4888306;29;20073;-80
2023/08/24 01:40:13;;;;;;;7.40;6.13;;;;;;;24.16;81.41;98995.06;4885602;29;20104;-80
2023/08/24 01:43:07;;;;;;;10.82;6.78;;;;;;;24.07;81.74;98986.84;4887039;29;20035;-80
2023/08/24 01:45:53;;;;;;;8.47;6.47;;;;;;;24.32;80.92;98987.66;4883287;29;20044;-80
2023/08/24 01:48:38;;;;;;;8.38;6.40;;;;;;;24.24;81.36;98986.41;4887418;29;20051;-80
2023/08/24 01:51:23;;;;;;;10.60;7.38;;;;;;;24.40;81.08;98984.31;4886464;29;20392;-79
2023/08/24 01:54:08;;;;;;;12.00;7.82;;;;;;;23.96;82.37;98986.13;4888348;29;20120;-80
2023/08/24 01:56:52;;;;;;;11.02;6.38;;;;;;;24.09;82.21;98985.50;4887989;29;20100;-79
2023/08/24 01:59:36;;;;;;;9.48;6.85;;;;;;;24.15;82.03;98975.50;4885338;29;20048;-80
2023/08/24 02:02:21;;;;;;;10.23;6.85;;;;;;;24.05;82.46;98976.44;4890309;29;20099;-80
2023/08/24 02:05:05;;;;;;;9.13;6.78;;;;;;;24.07;82.86;98974.25;4887561;29;20056;-79
2023/08/24 02:07:49;;;;;;;9.52;6.70;;;;;;;24.14;82.56;98981.16;4886507;29;20044;-80
2023/08/24 02:10:33;;;;;;;10.93;7.18;;;;;;;24.07;82.49;98971.56;4884933;29;20076;-80
2023/08/24 02:13:17;;;;;;;9.43;7.22;;;;;;;24.15;82.63;98975.50;4884228;29;20052;-79
2023/08/24 02:16:06;;;;;;;9.90;6.85;;;;;;;24.10;82.67;98964.84;4883909;29;20120;-80
2023/08/24 02:18:50;;;;;;;8.07;6.38;;;;;;;24.06;82.76;98972.66;4884626;29;20064;-80
2023/08/24 02:21:36;;;;;;;8.35;6.43;;;;;;;24.04;82.60;98965.97;4884198;29;20228;-81
2023/08/24 02:24:20;;;;;;;8.73;7.38;;;;;;;23.98;82.67;98965.22;4884099;29;20117;-80
2023/08/24 02:27:04;;;;;;;10.98;7.28;;;;;;;23.94;82.54;98951.59;4889413;29;20413;-80
2023/08/24 02:29:49;;;;;;;8.07;6.97;;;;;;;23.87;82.67;98944.97;4888158;29;20071;-81
2023/08/24 02:32:33;;;;;;;9.13;7.43;;;;;;;23.68;83.24;98943.84;4889906;29;20049;-81
2023/08/24 02:35:18;;;;;;;9.82;7.07;;;;;;;23.53;83.35;98936.72;4887359;29;20052;-81
2023/08/24 02:38:03;;;;;;;12.55;7.43;;;;;;;23.55;83.50;98933.78;4885165;29;20423;-80
2023/08/24 02:40:47;;;;;;;10.18;7.05;;;;;;;23.36;84.15;98933.69;4883270;29;20071;-81
2023/08/24 02:43:31;;;;;;;9.85;6.97;;;;;;;23.33;84.20;98947.66;4885333;29;20074;-80
2023/08/24 02:46:15;;;;;;;9.38;6.82;;;;;;;23.45;83.69;98940.03;4889866;29;20144;-80
2023/08/24 02:48:59;;;;;;;11.50;7.35;;;;;;;23.41;83.70;98928.31;4887788;29;20406;-80
2023/08/24 02:51:44;;;;;;;12.85;8.50;;;;;;;23.31;84.41;98926.50;4887335;29;20043;-79
2023/08/24 02:54:28;;;;;;;11.32;8.68;;;;;;;23.05;85.31;98924.00;4888142;29;20116;-80
2023/08/24 02:57:12;;;;;;;16.92;8.50;;;;;;;23.09;85.54;98932.28;4889413;29;20044;-80
2023/08/24 02:59:56;;;;;;;16.67;9.00;;;;;;;22.96;86.49;98928.38;4886597;29;20406;-80
2023/08/24 03:02:40;;;;;;;14.02;8.98;;;;;;;23.04;86.75;98933.13;4888691;29;20056;-80
2023/08/24 03:05:24;;;;;;;10.75;8.60;;;;;;;23.07;87.05;98932.56;4885762;29;20048;-80
2023/08/24 03:08:08;;;;;;;14.90;9.02;;;;;;;23.25;86.79;98936.47;4887046;29;20052;-80
2023/08/24 03:10:52;;;;;;;11.45;8.82;;;;;;;23.24;87.05;98924.13;4887261;29;20543;-80
2023/08/24 03:13:40;;;;;;;12.00;9.07;;;;;;;23.16;87.40;98927.41;4886473;29;20096;-80
2023/08/24 03:16:24;;;;;;;14.60;8.98;;;;;;;23.87;85.90;98936.94;4884184;29;20064;-80
2023/08/24 03:19:09;;;;;;;12.60;9.27;;;;;;;23.32;87.43;98951.41;4883885;29;20044;-80
2023/08/24 03:21:53;;;;;;;13.48;9.32;;;;;;;23.73;86.48;98942.97;4890251;29;20414;-80
2023/08/24 03:24:37;;;;;;;11.98;8.57;;;;;;;23.96;85.47;98935.22;4884184;29;20088;-80
2023/08/24 03:27:21;;;;;;;11.60;8.32;;;;;;;23.46;86.87;98930.91;4886876;29;20048;-81
2023/08/24 03:30:06;;;;;;;12.73;8.25;;;;;;;23.59;86.82;98928.66;4883558;29;20046;-80
2023/08/24 03:32:50;;;;;;;10.95;8.00;;;;;;;23.46;86.97;98924.75;4886633;29;20420;-81
2023/08/24 03:35:35;;;;;;;11.60;8.10;;;;;;;23.33;87.39;98913.63;4886553;29;20133;-81
2023/08/24 03:38:19;;;;;;;10.63;8.00;;;;;;;23.39;87.00;98914.41;4882844;29;20092;-80
2023/08/24 03:41:05;;;;;;;12.10;8.07;;;;;;;23.12;87.34;98923.69;4887129;29;20064;-81
2023/08/24 03:43:49;;;;;;;11.10;7.90;;;;;;;23.15;87.98;98925.81;4890211;29;20564;-81
2023/08/24 03:46:34;;;;;;;11.20;7.75;;;;;;;23.22;87.92;98920.94;4890245;29;20048;-81
2023/08/24 03:49:18;;;;;;;11.75;8.10;;;;;;;23.14;87.99;98918.84;4889729;29;20039;-81
2023/08/24 03:52:02;;;;;;;8.77;7.75;;;;;;;23.53;86.98;98907.25;4887015;29;20448;-81
2023/08/24 03:54:47;;;;;;;9.55;7.68;;;;;;;23.19;87.94;98901.94;4890766;29;20059;-80
2023/08/24 03:57:30;;;;;;;13.68;8.23;;;;;;;23.25;87.73;98898.97;4889129;29;20091;-81
2023/08/24 04:00:14;;;;;;;12.70;7.95;;;;;;;23.45;87.07;98891.00;4888815;29;20112;-81
2023/08/24 04:02:59;;;;;;;10.68;7.38;;;;;;;23.48;86.91;98891.25;4887418;29;20047;-80
2023/08/24 04:05:43;;;;;;;13.90;8.13;;;;;;;23.49;87.01;98886.72;4888343;29;20068;-81
2023/08/24 04:08:27;;;;;;;11.63;7.78;;;;;;;23.36;87.25;98907.72;4887738;29;20049;-81
2023/08/24 04:11:11;;;;;;;14.18;8.50;;;;;;;23.35;87.05;98897.28;4892074;29;20047;-81
2023/08/24 04:13:55;;;;;;;10.40;7.47;;;;;;;23.29;87.72;98906.44;4889488;29;20048;-81
2023/08/24 04:16:38;;;;;;;13.05;8.60;;;;;;;23.25;87.87;98901.66;4887401;29;20121;-81
2023/08/24 04:19:22;;;;;;;10.15;7.90;;;;;;;23.58;87.55;98890.34;4887810;29;20041;-81
2023/08/24 04:22:06;;;;;;;12.68;8.63;;;;;;;23.44;86.81;98882.19;4885607;29;20146;-81
2023/08/24 04:24:50;;;;;;;10.07;7.35;;;;;;;23.66;86.17;98864.81;4891074;29;20067;-80
2023/08/24 04:27:35;;;;;;;9.13;7.10;;;;;;;23.58;86.40;98870.78;4893296;29;20567;-80
2023/08/24 04:30:19;;;;;;;8.70;6.68;;;;;;;23.28;86.45;98865.47;4889150;29;20059;-80
2023/08/24 04:33:04;;;;;;;7.93;6.00;;;;;;;23.25;86.22;98861.50;4887899;29;20052;-81
2023/08/24 04:35:49;;;;;;;7.85;6.28;;;;;;;23.25;85.39;98850.78;4889458;29;20051;-80
2023/08/24 04:38:33;;;;;;;7.85;5.75;;;;;;;23.25;85.13;98856.13;4888752;29;20511;-80
2023/08/24 04:41:17;;;;;;;9.40;5.95;;;;;;;23.23;83.78;98852.09;4887032;29;20116;-81
2023/08/24 04:44:01;;;;;;;9.68;5.38;;;;;;;23.19;83.63;98862.59;4886934;29;20079;-81
2023/08/24 04:46:45;;;;;;;6.45;5.45;;;;;;;23.13;83.55;98869.06;4889546;29;20083;-80
2023/08/24 04:49:32;;;;;;;7.25;5.38;;;;;;;23.09;83.21;98857.34;4889905;29;20040;-80
2023/08/24 04:52:16;;;;;;;8.18;5.28;;;;;;;23.18;82.90;98860.19;4889699;29;20379;-81
2023/08/24 04:55:00;;;;;;;9.93;5.68;;;;;;;23.17;83.10;98854.03;4888576;29;20044;-81
2023/08/24 04:57:44;;;;;;;6.70;5.10;;;;;;;23.21;83.08;98846.25;4883338;29;20042;-80
2023/08/24 05:00:28;;;;;;;9.10;5.47;;;;;;;23.15;83.12;98845.50;4888049;29;20048;-80
2023/08/24 05:03:13;;;;;;;7.78;5.28;;;;;;;23.27;82.70;98842.44;4886697;29;20040;-81
2023/08/24 05:05:57;;;;;;;6.80;4.97;;;;;;;23.21;82.77;98848.91;4888844;29;20091;-81
2023/08/24 05:08:41;;;;;;;6.25;4.68;;;;;;;23.28;81.67;98851.28;4887754;29;20075;-80
2023/08/24 05:11:29;;;;;;;5.32;4.53;;;;;;;23.08;81.26;98850.38;4885258;29;20151;-80
2023/08/24 05:14:13;;;;;;;6.57;4.47;;;;;;;23.29;80.44;98852.88;4889594;29;20176;-80
2023/08/24 05:16:58;;;;;;;4.88;3.97;;;;;;;22.95;80.62;98841.91;4887202;29;20067;-80
2023/08/24 05:19:42;;;;;;;10.45;4.88;;;;;;;23.76;78.63;98842.47;4888822;29;20039;-80
2023/08/24 05:22:26;;;;;;;4.78;4.25;;;;;;;22.97;79.59;98845.13;4886740;29;20035;-81
2023/08/24 05:25:09;;;;;;;5.40;3.80;;;;;;;23.00;77.05;98859.03;4889467;29;20518;-81
2023/08/24 05:27:53;;;;;;;5.60;3.60;;;;;;;23.06;76.49;98860.56;4886087;29;20051;-81
2023/08/24 05:30:37;;;;;;;4.18;3.60;;;;;;;23.09;76.25;98851.97;4889590;29;20040;-81
2023/08/24 05:33:23;;;;;;;3.95;3.55;;;;;;;23.13;76.25;98857.56;4887144;29;20344;-81
2023/08/24 05:36:07;;;;;;;5.20;3.50;;;;;;;23.13;75.28;98853.00;4885308;29;20044;-81
2023/08/24 05:38:54;;;;;;;3.95;3.40;;;;;;;23.21;75.14;98851.59;4890284;29;20040;-81
2023/08/24 05:41:39;;;;;;;5.85;3.28;;;;;;;23.19;73.99;98841.19;4890340;29;20055;-81
2023/08/24 05:44:23;;;;;;;3.90;3.00;;;;;;;23.27;73.51;98844.34;4888184;29;20047;-82
2023/08/24 05:47:07;;;;;;;6.32;2.92;;;;;;;23.32;72.09;98845.09;4891499;29;20563;-82
2023/08/24 05:49:51;;;;;;;3.47;3.17;;;;;;;23.12;72.80;98835.34;4885020;29;20502;-81
2023/08/24 05:52:35;;;;;;;5.55;3.22;;;;;;;23.47;71.48;98837.97;4888974;29;20089;-81
2023/08/24 05:55:20;;;;;;;3.17;2.75;;;;;;;23.75;69.93;98836.28;4885877;29;20048;-81
2023/08/24 05:58:04;;;;;;;4.80;2.90;;;;;;;23.51;70.09;98825.59;4892731;29;20116;-82
2023/08/24 06:00:55;;;;;;;5.82;2.95;;;;;;;23.60;69.11;98828.47;4889721;29;20395;-81
2023/08/24 06:03:40;;;;;;;3.55;2.75;;;;;;;23.63;68.21;98827.88;4881618;29;20096;-80
2023/08/24 06:06:24;;;;;;;3.38;2.97;;;;;;;23.48;68.50;98829.66;4885637;29;20048;-81
2023/08/24 06:09:08;;;;;;;6.15;2.90;;;;;;;23.64;68.40;98821.44;4883963;29;20180;-81
2023/08/24 06:11:52;;;;;;;4.60;3.00;;;;;;;23.86;68.03;98822.78;4887271;29;20056;-80
2023/08/24 06:14:35;;;;;;;3.13;2.58;;;;;;;23.95;67.43;98827.19;4884700;29;20039;-80
2023/08/24 06:17:20;;;;;;;5.25;3.40;;;;;;;24.10;67.43;98804.75;4883441;29;20584;-80
2023/08/24 06:20:05;;;;;;;4.70;3.15;;;;;;;24.12;68.36;98795.63;4881571;29;20052;-80
2023/08/24 06:22:50;;;;;;;4.40;2.92;;;;;;;24.25;67.84;98814.47;4888703;29;20039;-81
2023/08/24 06:25:35;;;;;;;3.38;2.70;;;;;;;24.23;67.61;98807.81;4882711;29;20064;-80
2023/08/24 06:28:19;;;;;;;3.97;2.80;;;;;;;24.64;66.81;98795.63;4883545;29;20530;-82
2023/08/24 06:31:03;;;;;;;2.85;2.55;;;;;;;24.73;66.55;98788.50;4885521;29;20048;-82
2023/08/24 06:33:47;;;;;;;5.45;3.28;;;;;;;24.88;66.66;98797.41;4884544;29;20506;-81
2023/08/24 06:36:31;;;;;;;5.60;3.22;;;;;;;24.64;67.69;98783.00;4881919;29;20075;-83
2023/08/24 06:39:15;;;;;;;3.72;2.72;;;;;;;24.59;68.43;98783.09;4889835;29;20579;-83
2023/08/24 06:41:59;;;;;;;3.75;2.83;;;;;;;24.59;69.17;98772.38;4882684;29;20035;-82
2023/08/24 06:44:43;;;;;;;3.67;2.88;;;;;;;24.76;67.46;98762.97;4885502;29;20150;-83
2023/08/24 06:47:27;;;;;;;3.08;2.78;;;;;;;24.89;67.46;98772.94;4883248;29;20052;-83
2023/08/24 06:50:11;;;;;;;4.20;2.90;;;;;;;24.95;67.57;98771.75;4887961;29;20451;-83
2023/08/24 06:52:55;;;;;;;6.05;2.88;;;;;;;25.09;68.32;98754.88;4883223;29;20116;-82
2023/08/24 06:55:39;;;;;;;4.70;3.00;;;;;;;25.02;68.54;98759.84;4887313;29;20114;-83
2023/08/24 06:58:24;;;;;;;3.58;3.08;;;;;;;25.14;68.21;98751.28;4887083;29;20109;-84
2023/08/24 07:01:08;;;;;;;4.28;3.00;;;;;;;25.09;66.90;98760.22;4888346;29;20040;-83
2023/08/24 07:03:52;;;;;;;3.88;2.70;;;;;;;25.25;67.13;98771.47;4885299;29;20108;-83
2023/08/24 07:06:36;;;;;;;5.28;2.80;;;;;;;25.16;67.50;98766.03;4890819;29;20048;-83
2023/08/24 07:09:21;;;;;;;4.97;2.80;;;;;;;25.30;67.33;98746.41;4887455;29;20142;-82
2023/08/24 07:12:07;;;;;;;5.22;3.55;;;;;;;25.26;67.43;98748.09;4885543;29;20063;-84
2023/08/24 07:14:51;;;;;;;4.53;2.75;;;;;;;25.42;67.37;98749.38;4885481;29;20124;-85
2023/08/24 07:17:35;;;;;;;3.47;3.10;;;;;;;25.33;67.64;98757.34;4880851;29;20121;-81
2023/08/24 07:20:19;;;;;;;2.65;2.45;;;;;;;25.39;67.71;98760.72;4882895;29;20051;-81
2023/08/24 07:23:04;;;;;;;5.47;3.15;;;;;;;25.33;67.57;98768.09;4889802;29;20112;-82
2023/08/24 07:25:48;;;;;;;5.35;3.15;;;;;;;25.58;67.74;98767.91;4885150;29;20567;-81
2023/08/24 07:28:32;;;;;;;8.95;3.33;;;;;;;25.58;67.59;98760.63;4883552;29;20422;-82
2023/08/24 07:31:16;;;;;;;3.65;2.92;;;;;;;25.75;67.39;98757.31;4881251;29;20052;-80
2023/08/24 07:34:00;;;;;;;5.15;3.30;;;;;;;26.02;67.91;98752.94;4883322;29;20112;-81
2023/08/24 07:36:46;;;;;;;6.45;3.22;;;;;;;26.10;66.88;98757.59;4880456;29;20121;-78
2023/08/24 07:39:30;;;;;;;3.65;3.00;;;;;;;26.14;67.51;98752.41;4880608;29;20063;-80
2023/08/24 07:42:14;;;;;;;6.03;3.35;;;;;;;26.64;67.10;98742.63;4885289;29;20059;-82
2023/08/24 07:44:58;;;;;;;5.80;3.20;;;;;;;26.77;66.95;98739.00;4887783;29;20101;-81
2023/08/24 07:47:42;;;;;;;4.63;3.05;;;;;;;27.25;65.89;98728.59;4885686;29;20111;-82
2023/08/24 07:50:26;;;;;;;4.07;3.03;;;;;;;27.72;67.12;98725.38;4883178;29;20052;-81
2023/08/24 07:53:10;;;;;;;5.50;2.90;;;;;;;28.08;65.89;98729.59;4884467;29;20387;-81
2023/08/24 07:55:57;;;;;;;12.18;3.10;;;;;;;28.27;62.94;98717.72;4885181;29;20127;-82
2023/08/24 07:58:41;;;;;;;4.55;3.03;;;;;;;28.00;64.74;98716.94;4887327;29;20055;-81
2023/08/24 08:01:25;;;;;;;4.30;2.60;;;;;;;28.01;63.76;98717.75;4883193;29;20047;-82
2023/08/24 08:04:09;;;;;;;6.53;2.85;;;;;;;27.65;64.45;98730.41;4888405;29;20051;-81
2023/08/24 08:06:53;;;;;;;5.28;2.50;;;;;;;27.67;65.06;98728.19;4885051;29;20052;-82
2023/08/24 08:09:37;;;;;;;6.60;2.30;;;;;;;27.69;65.33;98717.88;4887049;29;20527;-82
2023/08/24 08:12:21;;;;;;;5.25;2.20;;;;;;;27.48;66.00;98721.16;4882836;29;21417;-82
2023/08/24 08:15:05;;;;;;;3.53;2.35;;;;;;;27.09;65.56;98706.69;4880038;29;20075;-81
2023/08/24 08:17:49;;;;;;;3.17;2.20;;;;;;;26.98;66.47;98726.94;4885961;29;20116;-82
2023/08/24 08:20:33;;;;;;;5.80;2.38;;;;;;;27.03;66.84;98721.41;4886743;29;20076;-82
2023/08/24 08:23:17;;;;;;;5.50;3.00;;;;;;;27.39;66.27;98728.47;4876992;29;20063;-83
2023/08/24 08:26:00;;;;;;;7.50;4.15;;;;;;;27.45;65.87;98718.34;4882302;29;20136;-82
2023/08/24 08:28:45;;;;;;;8.40;4.68;;;;;;;27.23;65.92;98723.53;4887009;29;20101;-84
2023/08/24 08:31:29;;;;;;;7.35;3.95;;;;;;;27.01;66.70;98723.63;4884770;29;20117;-80
2023/08/24 08:34:13;;;;;;;6.85;4.40;;;;;;;26.69;66.74;98715.56;4881870;29;20047;-83
2023/08/24 08:36:57;;;;;;;6.47;3.55;;;;;;;26.72;67.07;98709.53;4888458;29;20058;-81
2023/08/24 08:39:40;;;;;;;7.70;5.68;;;;;;;27.06;67.45;98704.63;4888116;29;20047;-82
2023/08/24 08:42:24;;;;;;;11.95;7.40;;;;;;;27.45;66.30;98721.03;4889510;29;20096;-81
2023/08/24 08:45:10;;;;;;;8.48;6.63;;;;;;;27.22;66.39;98724.63;4890227;29;20083;-82
2023/08/24 08:48:01;;;;;;;7.68;4.97;;;;;;;26.79;67.23;98722.56;4887513;29;20043;-81
2023/08/24 08:50:49;;;;;;;4.75;3.40;;;;;;;26.55;67.73;98712.97;4888853;29;20049;-83
2023/08/24 08:53:33;;;;;;;4.82;2.70;;;;;;;27.16;66.99;98701.66;4890228;29;21594;-83
2023/08/24 08:56:19;;;;;;;3.35;2.45;;;;;;;27.43;66.50;98705.16;4889603;29;20192;-83
2023/08/24 08:59:08;;;;;;;2.20;2.00;;;;;;;27.36;66.53;98704.84;4892478;29;20144;-81
2023/08/24 09:01:52;;;;;;;2.45;2.22;;;;;;;26.91;66.34;98709.31;4884776;29;20490;-84
2023/08/24 09:04:38;;;;;;;2.05;1.83;;;;;;;27.18;66.04;98704.81;4886602;29;20044;-81
2023/08/24 09:07:23;;;;;;;2.22;2.03;;;;;;;27.63;65.14;98706.50;4886969;29;20044;-83
2023/08/24 09:10:08;;;;;;;4.00;2.20;;;;;;;28.07;64.77;98708.38;4890599;29;20091;-83
2023/08/24 09:12:52;;;;;;;2.25;2.05;;;;;;;27.88;64.69;98703.28;4890666;29;20522;-83
2023/08/24 09:15:36;;;;;;;2.92;2.10;;;;;;;27.46;65.57;98701.84;4889271;29;20051;-83
2023/08/24 09:18:22;;;;;;;3.63;2.33;;;;;;;27.57;65.63;98701.56;4888595;29;20060;-82
2023/08/24 09:21:10;;;;;;;3.10;1.75;;;;;;;27.93;65.08;98686.97;4889831;29;20052;-82
2023/08/24 09:23:55;;;;;;;2.42;1.73;;;;;;;27.79;64.18;98674.44;4889194;29;20048;-82
2023/08/24 09:26:42;;;;;;;3.20;2.00;;;;;;;27.59;64.90;98673.16;4884527;29;20480;-83
2023/08/24 09:29:26;;;;;;;2.85;1.77;;;;;;;27.89;64.81;98669.81;4888327;29;20059;-83
2023/08/24 09:32:12;;;;;;;1.75;1.65;;;;;;;28.61;64.23;98675.53;4890628;29;20052;-83
2023/08/24 09:35:02;;;;;;;2.67;1.70;;;;;;;28.89;63.08;98671.63;4885409;29;20044;-83
2023/08/24 09:37:49;;;;;;;2.20;2.00;;;;;;;28.64;63.12;98677.56;4890220;29;20627;-82
2023/08/24 09:40:33;;;;;;;2.65;2.20;;;;;;;29.15;62.54;98674.16;4886280;29;20441;-83
2023/08/24 09:43:17;;;;;;;5.88;2.55;;;;;;;29.03;61.93;98685.69;4882262;29;20131;-82
2023/08/24 09:46:03;;;;;;;3.75;1.80;;;;;;;29.56;60.65;98695.38;4883778;29;20055;-82
2023/08/24 09:48:53;;;;;;;3.92;2.40;;;;;;;29.73;61.38;98699.84;4888952;29;20047;-84
2023/08/24 09:51:39;;;;;;;3.50;2.55;;;;;;;29.19;60.95;98704.81;4889268;29;20181;-82
2023/08/24 09:54:27;;;;;;;3.15;2.80;;;;;;;29.39;61.26;98691.66;4882442;29;20043;-83
2023/08/24 09:57:12;;;;;;;3.28;2.28;;;;;;;29.74;60.75;98699.53;4886574;29;20113;-83
2023/08/24 09:59:56;;;;;;;2.55;2.35;;;;;;;29.60;59.82;98702.50;4885901;29;20119;-82
2023/08/24 10:02:50;;;;;;;3.35;2.35;;;;;;;29.64;59.22;98697.22;4890503;29;20040;-83
2023/08/24 10:05:35;;;;;;;3.15;2.53;;;;;;;29.39;60.19;98691.66;4890281;29;20099;-83
2023/08/24 10:08:26;;;;;;;2.78;2.58;;;;;;;28.92;61.61;98698.78;4888264;29;20052;-83
2023/08/24 10:11:10;;;;;;;3.13;2.83;;;;;;;29.33;61.12;98684.88;4888714;29;20052;-82
2023/08/24 10:14:16;;;;;;;3.30;3.00;;;;;;;29.15;61.25;98701.19;4888727;29;20123;-83
2023/08/24 10:17:00;;;;;;;4.38;3.97;;;;;;;28.42;62.21;98702.13;4887947;29;20124;-83
2023/08/24 10:19:46;;;;;;;4.10;3.75;;;;;;;29.38;61.16;98692.78;4883715;29;20173;-83
2023/08/24 10:22:31;;;;;;;4.00;3.70;;;;;;;29.35;61.82;98682.63;4887076;29;20055;-83
2023/08/24 10:25:16;;;;;;;5.63;5.13;;;;;;;28.99;62.36;98690.16;4889137;29;20051;-83
2023/08/24 10:28:01;;;;;;;6.60;6.00;;;;;;;28.68;62.28;98693.13;4887280;29;20399;-82
2023/08/24 10:30:47;;;;;;;7.63;6.80;;;;;;;29.20;61.53;98692.88;4884333;29;20590;-83
2023/08/24 10:33:34;;;;;;;8.35;7.55;;;;;;;29.18;61.32;98680.81;4887939;29;20039;-83
2023/08/24 10:36:18;;;;;;;8.40;7.43;;;;;;;28.98;61.91;98680.44;4890540;29;20728;-83
2023/08/24 10:39:06;;;;;;;7.93;7.22;;;;;;;29.97;61.02;98666.69;4887660;29;20052;-82
2023/08/24 10:41:52;;;;;;;8.95;7.63;;;;;;;30.51;58.81;98670.44;4887662;29;20047;-82
2023/08/24 10:44:37;;;;;;;9.10;7.47;;;;;;;30.87;58.63;98676.22;4888976;29;20410;-84
2023/08/24 10:47:23;;;;;;;9.65;8.65;;;;;;;29.91;59.04;98682.34;4886769;29;20495;-83
2023/08/24 10:50:09;;;;;;;9.13;8.23;;;;;;;29.90;59.58;98674.56;4887728;29;20052;-83
2023/08/24 10:52:53;;;;;;;8.32;7.50;;;;;;;30.37;59.63;98669.97;4884766;29;20167;-83
2023/08/24 10:55:37;;;;;;;7.88;7.05;;;;;;;30.73;57.62;98655.66;4887638;29;20101;-83
2023/08/24 10:58:23;;;;;;;9.90;7.40;;;;;;;30.77;57.81;98669.31;4887730;29;20040;-82
2023/08/24 11:01:07;;;;;;;7.95;7.25;;;;;;;29.93;58.48;98663.84;4884509;29;20109;-82
2023/08/24 11:03:55;;;;;;;7.53;6.82;;;;;;;29.77;60.25;98669.09;4889628;29;20189;-82
2023/08/24 11:06:56;;;;;;;7.78;7.03;;;;;;;30.28;58.66;98678.97;4888554;29;20459;-84
2023/08/24 11:09:47;;;;;;;6.57;6.03;;;;;;;30.27;58.50;98671.19;4883968;29;20089;-83
2023/08/24 11:13:03;;;;;;;7.43;6.72;;;;;;;30.70;58.28;98671.81;4887654;29;20059;-83
2023/08/24 11:15:54;;;;;;;7.45;6.72;;;;;;;30.37;58.65;98665.34;4886625;29;20096;-83
2023/08/24 11:18:39;;;;;;;7.55;6.78;;;;;;;29.86;59.32;98668.22;4885302;29;20151;-82
2023/08/24 11:21:23;;;;;;;6.90;6.30;;;;;;;29.93;59.64;98674.66;4887104;29;20391;-83
2023/08/24 11:24:09;;;;;;;7.93;6.65;;;;;;;29.33;61.02;98663.25;4886621;29;20117;-82
2023/08/24 11:26:53;;;;;;;6.18;5.68;;;;;;;29.60;59.88;98659.25;4885775;29;20044;-82
2023/08/24 11:29:37;;;;;;;6.63;6.03;;;;;;;30.22;59.13;98655.94;4886566;29;20036;-83
2023/08/24 11:32:21;;;;;;;6.65;5.50;;;;;;;30.32;59.75;98662.84;4884291;29;20188;-83
2023/08/24 11:35:06;;;;;;;4.90;4.50;;;;;;;30.03;59.90;98676.19;4891108;29;20059;-83
2023/08/24 11:37:55;;;;;;;5.57;5.07;;;;;;;29.98;59.54;98679.09;4890649;29;20188;-84
2023/08/24 11:40:39;;;;;;;5.40;4.90;;;;;;;29.86;59.40;98679.03;4885369;29;20516;-83
2023/08/24 11:43:27;;;;;;;5.90;4.90;;;;;;;29.76;59.90;98675.63;4890925;29;20085;-83
2023/08/24 11:46:11;;;;;;;4.90;4.40;;;;;;;30.08;59.65;98671.72;4887341;29;20050;-83
2023/08/24 11:48:57;;;;;;;4.55;4.10;;;;;;;30.26;59.21;98675.78;4884222;29;20044;-83
2023/08/24 11:51:41;;;;;;;4.82;4.07;;;;;;;30.34;58.20;98676.81;4885877;29;20185;-83
2023/08/24 11:54:32;;;;;;;5.80;4.70;;;;;;;30.54;58.75;98690.63;4887228;29;20123;-83
2023/08/24 11:57:16;;;;;;;4.65;4.20;;;;;;;30.26;58.50;98683.13;4891559;29;20542;-83
2023/08/24 12:00:01;;;;;;;3.50;3.20;;;;;;;30.31;58.81;98672.88;4888186;29;20128;-82
2023/08/24 12:02:46;;;;;;;4.78;3.65;;;;;;;29.84;59.00;98676.69;4892396;29;20495;-83
2023/08/24 12:05:30;;;;;;;4.45;3.33;;;;;;;29.76;59.98;98670.22;4886070;29;20112;-83
2023/08/24 12:08:14;;;;;;;2.63;2.42;;;;;;;30.51;58.78;98667.72;4888011;29;20097;-83
2023/08/24 12:10:59;;;;;;;2.50;2.30;;;;;;;30.36;59.35;98674.56;4884960;29;20068;-83
2023/08/24 12:13:55;;;;;;;1.75;1.65;;;;;;;30.27;58.66;98680.09;4880429;29;20120;-82
2023/08/24 12:16:41;;;;;;;2.65;2.25;;;;;;;29.84;59.10;98689.41;4884948;29;20240;-84
2023/08/24 12:19:25;;;;;;;2.15;1.95;;;;;;;30.03;58.58;98673.50;4885772;29;20052;-82
2023/08/24 12:22:16;;;;;;;2.38;1.92;;;;;;;29.29;59.83;98668.50;4882650;29;20399;-81
2023/08/24 12:25:02;;;;;;;2.33;2.13;;;;;;;30.10;58.71;98666.75;4885828;29;20063;-82
2023/08/24 12:27:47;;;;;;;1.90;1.80;;;;;;;29.82;59.33;98660.00;4885914;29;20079;-81
2023/08/24 12:30:33;;;;;;;2.00;1.90;;;;;;;30.19;58.77;98656.63;4892386;29;20051;-79
2023/08/24 12:33:25;;;;;;;2.30;2.10;;;;;;;30.90;58.21;98662.78;4890244;29;20782;-79
2023/08/24 12:36:09;;;;;;;2.28;2.00;;;;;;;30.21;58.93;98663.28;4892591;29;20099;-80
2023/08/24 12:38:53;;;;;;;1.60;1.50;;;;;;;30.26;58.21;98654.13;4886245;29;20558;-78
2023/08/24 12:41:37;;;;;;;1.30;1.30;;;;;;;29.18;59.90;98661.91;4885151;29;20136;-81
2023/08/24 12:44:21;;;;;;;2.40;2.20;;;;;;;28.36;61.63;98669.91;4887309;29;20048;-80
2023/08/24 12:47:05;;;;;;;3.72;2.22;;;;;;;29.05;60.91;98663.72;4884268;29;20047;-81
2023/08/24 12:49:50;;;;;;;3.33;2.45;;;;;;;28.85;61.41;98674.16;4882991;29;20120;-81
2023/08/24 12:52:34;;;;;;;3.17;2.50;;;;;;;29.03;61.04;98666.78;4885690;29;20096;-81
2023/08/24 12:55:18;;;;;;;4.68;3.22;;;;;;;28.43;61.75;98660.50;4885986;29;20051;-80
2023/08/24 12:58:03;;;;;;;3.42;3.10;;;;;;;28.26;61.61;98651.34;4889703;29;20064;-81